sensor_id;sensor_type;location;lat;lon;timestamp;P1;durP1;ratioP1;P2;durP2;ratioP2
73150;SDS011;61354;50.758;6.106;2024-03-23T00:54:58;7.63;;;1.63;;
73150;SDS011;61354;50.758;6.106;2024-03-23T00:57:42;7.82;;;1.90;;
73150;SDS011;61354;50.758;6.106;2024-03-23T01:00:27;9.55;;;1.88;;
73150;SDS011;61354;50.758;6.106;2024-03-23T01:03:11;4.43;;;1.98;;
73150;SDS011;61354;50.758;6.106;2024-03-23T01:05:58;6.28;;;1.60;;
73150;SDS011;61354;50.758;6.106;2024-03-23T01:08:43;6.95;;;1.83;;
73150;SDS011;61354;50.758;6.106;2024-03-23T01:11:28;3.97;;;1.58;;
73150;SDS011;61354;50.758;6.106;2024-03-23T01:14:12;5.40;;;2.03;;
73150;SDS011;61354;50.758;6.106;2024-03-23T01:16:56;5.20;;;1.92;;
73150;SDS011;61354;50.758;6.106;2024-03-23T01:19:39;6.93;;;1.92;;
73150;SDS011;61354;50.758;6.106;2024-03-23T01:22:25;2.60;;;0.95;;
73150;SDS011;61354;50.758;6.106;2024-03-23T01:25:08;7.15;;;2.08;;
73150;SDS011;61354;50.758;6.106;2024-03-23T01:27:52;4.13;;;1.52;;
73150;SDS011;61354;50.758;6.106;2024-03-23T01:30:36;4.80;;;1.63;;
73150;SDS011;61354;50.758;6.106;2024-03-23T01:33:20;4.85;;;1.60;;
73150;SDS011;61354;50.758;6.106;2024-03-23T01:36:04;2.83;;;1.40;;
73150;SDS011;61354;50.758;6.106;2024-03-23T01:38:48;5.25;;;1.20;;
73150;SDS011;61354;50.758;6.106;2024-03-23T01:41:33;4.03;;;1.75;;
73150;SDS011;61354;50.758;6.106;2024-03-23T01:44:17;3.63;;;1.40;;
73150;SDS011;61354;50.758;6.106;2024-03-23T01:47:01;3.25;;;1.73;;
73150;SDS011;61354;50.758;6.106;2024-03-23T01:49:45;4.57;;;1.50;;
73150;SDS011;61354;50.758;6.106;2024-03-23T01:52:28;5.72;;;2.08;;
73150;SDS011;61354;50.758;6.106;2024-03-23T01:55:14;5.78;;;1.45;;
73150;SDS011;61354;50.758;6.106;2024-03-23T01:57:58;4.60;;;1.73;;
73150;SDS011;61354;50.758;6.106;2024-03-23T02:00:42;5.57;;;1.42;;
73150;SDS011;61354;50.758;6.106;2024-03-23T02:03:26;6.43;;;1.50;;
73150;SDS011;61354;50.758;6.106;2024-03-23T02:06:11;3.45;;;0.98;;
73150;SDS011;61354;50.758;6.106;2024-03-23T02:08:55;3.47;;;1.25;;
73150;SDS011;61354;50.758;6.106;2024-03-23T02:11:39;5.15;;;1.40;;
73150;SDS011;61354;50.758;6.106;2024-03-23T02:14:23;3.85;;;1.40;;
73150;SDS011;61354;50.758;6.106;2024-03-23T02:17:06;3.92;;;1.23;;
73150;SDS011;61354;50.758;6.106;2024-03-23T02:19:50;4.47;;;1.35;;
73150;SDS011;61354;50.758;6.106;2024-03-23T02:22:38;3.88;;;1.38;;
73150;SDS011;61354;50.758;6.106;2024-03-23T02:25:22;5.80;;;1.35;;
73150;SDS011;61354;50.758;6.106;2024-03-23T02:28:06;3.75;;;1.10;;
73150;SDS011;61354;50.758;6.106;2024-03-23T02:30:51;4.05;;;1.33;;
73150;SDS011;61354;50.758;6.106;2024-03-23T02:33:36;3.88;;;1.10;;
73150;SDS011;61354;50.758;6.106;2024-03-23T02:36:21;4.60;;;1.45;;
73150;SDS011;61354;50.758;6.106;2024-03-23T02:39:05;4.88;;;1.10;;
73150;SDS011;61354;50.758;6.106;2024-03-23T02:41:50;4.18;;;1.50;;
73150;SDS011;61354;50.758;6.106;2024-03-23T02:44:34;4.03;;;1.13;;
73150;SDS011;61354;50.758;6.106;2024-03-23T02:47:18;5.15;;;1.38;;
73150;SDS011;61354;50.758;6.106;2024-03-23T02:50:02;3.15;;;1.40;;
73150;SDS011;61354;50.758;6.106;2024-03-23T02:52:47;6.90;;;1.80;;
73150;SDS011;61354;50.758;6.106;2024-03-23T02:55:31;3.80;;;1.27;;
73150;SDS011;61354;50.758;6.106;2024-03-23T02:58:15;2.55;;;1.13;;
73150;SDS011;61354;50.758;6.106;2024-03-23T03:00:59;3.15;;;1.35;;
73150;SDS011;61354;50.758;6.106;2024-03-23T03:03:43;3.92;;;1.50;;
73150;SDS011;61354;50.758;6.106;2024-03-23T03:06:27;5.43;;;1.58;;
73150;SDS011;61354;50.758;6.106;2024-03-23T03:09:12;4.30;;;1.17;;
73150;SDS011;61354;50.758;6.106;2024-03-23T03:11:56;7.00;;;1.70;;
73150;SDS011;61354;50.758;6.106;2024-03-23T03:14:40;2.28;;;1.35;;
73150;SDS011;61354;50.758;6.106;2024-03-23T03:17:24;4.20;;;1.33;;
73150;SDS011;61354;50.758;6.106;2024-03-23T03:20:08;6.57;;;1.30;;
73150;SDS011;61354;50.758;6.106;2024-03-23T03:22:57;4.75;;;1.60;;
73150;SDS011;61354;50.758;6.106;2024-03-23T03:25:41;3.78;;;1.60;;
73150;SDS011;61354;50.758;6.106;2024-03-23T03:28:25;3.97;;;1.02;;
73150;SDS011;61354;50.758;6.106;2024-03-23T03:31:10;2.80;;;1.10;;
73150;SDS011;61354;50.758;6.106;2024-03-23T03:33:54;6.50;;;1.42;;
73150;SDS011;61354;50.758;6.106;2024-03-23T03:36:37;7.88;;;2.10;;
73150;SDS011;61354;50.758;6.106;2024-03-23T03:39:22;6.47;;;1.85;;
73150;SDS011;61354;50.758;6.106;2024-03-23T03:42:06;4.32;;;1.23;;
73150;SDS011;61354;50.758;6.106;2024-03-23T03:44:51;3.63;;;1.23;;
73150;SDS011;61354;50.758;6.106;2024-03-23T03:47:37;5.63;;;1.52;;
73150;SDS011;61354;50.758;6.106;2024-03-23T03:50:21;3.63;;;1.10;;
73150;SDS011;61354;50.758;6.106;2024-03-23T03:53:05;2.80;;;1.23;;
73150;SDS011;61354;50.758;6.106;2024-03-23T03:55:50;4.32;;;1.48;;
73150;SDS011;61354;50.758;6.106;2024-03-23T03:58:34;4.65;;;1.55;;
73150;SDS011;61354;50.758;6.106;2024-03-23T04:01:18;4.95;;;1.83;;
73150;SDS011;61354;50.758;6.106;2024-03-23T04:04:01;3.70;;;1.10;;
73150;SDS011;61354;50.758;6.106;2024-03-23T04:06:45;5.57;;;1.58;;
73150;SDS011;61354;50.758;6.106;2024-03-23T04:09:29;3.92;;;1.20;;
73150;SDS011;61354;50.758;6.106;2024-03-23T04:12:13;2.40;;;1.23;;
73150;SDS011;61354;50.758;6.106;2024-03-23T04:14:57;4.05;;;1.15;;
73150;SDS011;61354;50.758;6.106;2024-03-23T04:17:41;3.50;;;0.90;;
73150;SDS011;61354;50.758;6.106;2024-03-23T04:20:26;4.65;;;1.30;;
73150;SDS011;61354;50.758;6.106;2024-03-23T04:23:10;4.07;;;1.35;;
73150;SDS011;61354;50.758;6.106;2024-03-23T04:25:54;3.42;;;1.50;;
73150;SDS011;61354;50.758;6.106;2024-03-23T04:28:38;5.05;;;1.20;;
73150;SDS011;61354;50.758;6.106;2024-03-23T04:31:22;4.38;;;1.48;;
73150;SDS011;61354;50.758;6.106;2024-03-23T04:34:06;4.03;;;1.95;;
73150;SDS011;61354;50.758;6.106;2024-03-23T04:36:49;3.80;;;1.70;;
73150;SDS011;61354;50.758;6.106;2024-03-23T04:39:33;2.28;;;1.08;;
73150;SDS011;61354;50.758;6.106;2024-03-23T04:42:17;6.80;;;1.65;;
73150;SDS011;61354;50.758;6.106;2024-03-23T04:45:01;4.55;;;1.40;;
73150;SDS011;61354;50.758;6.106;2024-03-23T04:47:45;2.55;;;1.25;;
73150;SDS011;61354;50.758;6.106;2024-03-23T04:50:29;5.72;;;1.70;;
73150;SDS011;61354;50.758;6.106;2024-03-23T04:53:13;4.35;;;1.70;;
73150;SDS011;61354;50.758;6.106;2024-03-23T04:55:57;5.35;;;1.60;;
73150;SDS011;61354;50.758;6.106;2024-03-23T04:58:43;6.43;;;1.45;;
73150;SDS011;61354;50.758;6.106;2024-03-23T05:01:27;5.03;;;1.40;;
73150;SDS011;61354;50.758;6.106;2024-03-23T05:04:12;9.73;;;1.60;;
73150;SDS011;61354;50.758;6.106;2024-03-23T05:06:56;5.90;;;1.40;;
73150;SDS011;61354;50.758;6.106;2024-03-23T05:09:40;8.13;;;1.35;;
73150;SDS011;61354;50.758;6.106;2024-03-23T05:12:24;3.80;;;1.52;;
73150;SDS011;61354;50.758;6.106;2024-03-23T05:15:08;5.10;;;1.55;;
73150;SDS011;61354;50.758;6.106;2024-03-23T05:17:52;5.35;;;1.70;;
73150;SDS011;61354;50.758;6.106;2024-03-23T05:20:38;5.80;;;2.20;;
73150;SDS011;61354;50.758;6.106;2024-03-23T05:23:22;3.97;;;2.00;;
73150;SDS011;61354;50.758;6.106;2024-03-23T05:26:06;6.10;;;2.50;;
73150;SDS011;61354;50.758;6.106;2024-03-23T05:28:49;6.90;;;2.25;;
73150;SDS011;61354;50.758;6.106;2024-03-23T05:31:34;7.40;;;2.40;;
73150;SDS011;61354;50.758;6.106;2024-03-23T05:34:18;6.82;;;2.40;;
73150;SDS011;61354;50.758;6.106;2024-03-23T05:37:02;5.80;;;2.10;;
73150;SDS011;61354;50.758;6.106;2024-03-23T05:39:46;3.05;;;1.70;;
73150;SDS011;61354;50.758;6.106;2024-03-23T05:42:31;6.60;;;2.10;;
73150;SDS011;61354;50.758;6.106;2024-03-23T05:45:16;9.35;;;2.95;;
73150;SDS011;61354;50.758;6.106;2024-03-23T05:48:02;6.00;;;2.33;;
73150;SDS011;61354;50.758;6.106;2024-03-23T05:50:46;10.45;;;3.10;;
73150;SDS011;61354;50.758;6.106;2024-03-23T05:53:31;4.75;;;1.88;;
73150;SDS011;61354;50.758;6.106;2024-03-23T05:56:19;7.10;;;2.80;;
73150;SDS011;61354;50.758;6.106;2024-03-23T05:59:03;7.65;;;2.40;;
73150;SDS011;61354;50.758;6.106;2024-03-23T06:01:47;8.38;;;2.55;;
73150;SDS011;61354;50.758;6.106;2024-03-23T06:04:31;7.82;;;2.92;;
73150;SDS011;61354;50.758;6.106;2024-03-23T06:07:15;6.00;;;2.35;;
73150;SDS011;61354;50.758;6.106;2024-03-23T06:09:59;6.35;;;3.03;;
73150;SDS011;61354;50.758;6.106;2024-03-23T06:12:43;11.57;;;3.67;;
73150;SDS011;61354;50.758;6.106;2024-03-23T06:15:27;7.55;;;3.53;;
73150;SDS011;61354;50.758;6.106;2024-03-23T06:18:11;7.50;;;3.53;;
73150;SDS011;61354;50.758;6.106;2024-03-23T06:20:55;9.05;;;3.78;;
73150;SDS011;61354;50.758;6.106;2024-03-23T06:23:40;8.93;;;3.63;;
73150;SDS011;61354;50.758;6.106;2024-03-23T06:26:26;10.38;;;4.93;;
73150;SDS011;61354;50.758;6.106;2024-03-23T06:29:10;10.95;;;3.92;;
73150;SDS011;61354;50.758;6.106;2024-03-23T06:31:54;4.32;;;3.00;;
73150;SDS011;61354;50.758;6.106;2024-03-23T06:34:41;11.55;;;4.70;;
73150;SDS011;61354;50.758;6.106;2024-03-23T06:37:25;7.75;;;4.50;;
73150;SDS011;61354;50.758;6.106;2024-03-23T06:40:09;11.25;;;4.38;;
73150;SDS011;61354;50.758;6.106;2024-03-23T06:42:54;8.15;;;4.38;;
73150;SDS011;61354;50.758;6.106;2024-03-23T06:45:38;8.90;;;4.10;;
73150;SDS011;61354;50.758;6.106;2024-03-23T06:48:22;11.23;;;4.75;;
73150;SDS011;61354;50.758;6.106;2024-03-23T06:51:06;9.18;;;4.25;;
73150;SDS011;61354;50.758;6.106;2024-03-23T06:53:50;9.55;;;4.30;;
73150;SDS011;61354;50.758;6.106;2024-03-23T06:56:34;11.18;;;4.97;;
73150;SDS011;61354;50.758;6.106;2024-03-23T06:59:18;8.85;;;4.38;;
73150;SDS011;61354;50.758;6.106;2024-03-23T07:02:02;11.10;;;4.30;;
73150;SDS011;61354;50.758;6.106;2024-03-23T07:04:46;8.60;;;4.47;;
73150;SDS011;61354;50.758;6.106;2024-03-23T07:07:30;10.55;;;4.38;;
73150;SDS011;61354;50.758;6.106;2024-03-23T07:10:16;7.65;;;3.55;;
73150;SDS011;61354;50.758;6.106;2024-03-23T07:13:01;11.32;;;3.67;;
73150;SDS011;61354;50.758;6.106;2024-03-23T07:15:50;6.45;;;3.08;;
73150;SDS011;61354;50.758;6.106;2024-03-23T07:18:36;7.80;;;3.35;;
73150;SDS011;61354;50.758;6.106;2024-03-23T07:21:20;9.73;;;3.65;;
73150;SDS011;61354;50.758;6.106;2024-03-23T07:24:04;10.95;;;3.90;;
73150;SDS011;61354;50.758;6.106;2024-03-23T07:26:48;8.75;;;3.90;;
73150;SDS011;61354;50.758;6.106;2024-03-23T07:29:32;7.93;;;4.22;;
73150;SDS011;61354;50.758;6.106;2024-03-23T07:32:16;11.38;;;4.07;;
73150;SDS011;61354;50.758;6.106;2024-03-23T07:35:02;10.10;;;3.70;;
73150;SDS011;61354;50.758;6.106;2024-03-23T07:37:47;5.63;;;2.97;;
73150;SDS011;61354;50.758;6.106;2024-03-23T07:40:31;7.13;;;3.70;;
73150;SDS011;61354;50.758;6.106;2024-03-23T07:43:15;10.15;;;4.93;;
73150;SDS011;61354;50.758;6.106;2024-03-23T07:45:59;7.18;;;2.50;;
73150;SDS011;61354;50.758;6.106;2024-03-23T07:48:44;8.60;;;2.78;;
73150;SDS011;61354;50.758;6.106;2024-03-23T07:51:28;9.15;;;3.25;;
73150;SDS011;61354;50.758;6.106;2024-03-23T07:54:12;3.67;;;2.05;;
73150;SDS011;61354;50.758;6.106;2024-03-23T07:56:56;6.25;;;3.03;;
73150;SDS011;61354;50.758;6.106;2024-03-23T07:59:40;6.15;;;2.17;;
73150;SDS011;61354;50.758;6.106;2024-03-23T08:02:25;7.30;;;2.50;;
73150;SDS011;61354;50.758;6.106;2024-03-23T08:05:09;5.32;;;2.50;;
73150;SDS011;61354;50.758;6.106;2024-03-23T08:07:52;4.82;;;2.22;;
73150;SDS011;61354;50.758;6.106;2024-03-23T08:10:37;7.05;;;2.17;;
73150;SDS011;61354;50.758;6.106;2024-03-23T08:13:30;6.43;;;2.22;;
73150;SDS011;61354;50.758;6.106;2024-03-23T08:16:14;4.13;;;1.75;;
73150;SDS011;61354;50.758;6.106;2024-03-23T08:18:58;6.38;;;1.88;;
73150;SDS011;61354;50.758;6.106;2024-03-23T08:21:42;4.47;;;2.00;;
73150;SDS011;61354;50.758;6.106;2024-03-23T08:24:26;5.55;;;2.03;;
73150;SDS011;61354;50.758;6.106;2024-03-23T08:27:10;4.63;;;1.90;;
73150;SDS011;61354;50.758;6.106;2024-03-23T08:29:55;7.20;;;2.25;;
73150;SDS011;61354;50.758;6.106;2024-03-23T08:32:39;7.20;;;1.95;;
73150;SDS011;61354;50.758;6.106;2024-03-23T08:35:23;5.47;;;1.90;;
73150;SDS011;61354;50.758;6.106;2024-03-23T08:38:07;7.25;;;2.40;;
73150;SDS011;61354;50.758;6.106;2024-03-23T08:43:49;5.70;;;2.28;;
73150;SDS011;61354;50.758;6.106;2024-03-23T08:46:36;7.57;;;1.90;;
73150;SDS011;61354;50.758;6.106;2024-03-23T08:49:20;8.68;;;2.75;;
73150;SDS011;61354;50.758;6.106;2024-03-23T08:52:05;5.78;;;1.83;;
73150;SDS011;61354;50.758;6.106;2024-03-23T08:54:49;4.22;;;1.88;;
73150;SDS011;61354;50.758;6.106;2024-03-23T08:57:33;3.35;;;1.52;;
73150;SDS011;61354;50.758;6.106;2024-03-23T09:00:17;6.57;;;2.40;;
73150;SDS011;61354;50.758;6.106;2024-03-23T09:03:01;7.18;;;2.60;;
73150;SDS011;61354;50.758;6.106;2024-03-23T09:05:46;4.28;;;1.73;;
73150;SDS011;61354;50.758;6.106;2024-03-23T09:08:30;5.38;;;1.85;;
73150;SDS011;61354;50.758;6.106;2024-03-23T09:11:14;6.93;;;2.10;;
73150;SDS011;61354;50.758;6.106;2024-03-23T09:13:58;8.45;;;1.80;;
73150;SDS011;61354;50.758;6.106;2024-03-23T09:16:42;5.40;;;2.17;;
73150;SDS011;61354;50.758;6.106;2024-03-23T09:19:27;6.28;;;2.03;;
73150;SDS011;61354;50.758;6.106;2024-03-23T09:22:12;5.35;;;2.13;;
73150;SDS011;61354;50.758;6.106;2024-03-23T09:24:56;2.63;;;1.33;;
73150;SDS011;61354;50.758;6.106;2024-03-23T09:27:40;3.88;;;1.40;;
73150;SDS011;61354;50.758;6.106;2024-03-23T09:30:24;2.80;;;1.00;;
73150;SDS011;61354;50.758;6.106;2024-03-23T09:33:08;1.17;;;1.00;;
73150;SDS011;61354;50.758;6.106;2024-03-23T09:35:55;1.42;;;0.90;;
73150;SDS011;61354;50.758;6.106;2024-03-23T09:38:40;2.05;;;0.82;;
73150;SDS011;61354;50.758;6.106;2024-03-23T09:41:24;2.60;;;0.73;;
73150;SDS011;61354;50.758;6.106;2024-03-23T09:44:09;1.67;;;0.63;;
73150;SDS011;61354;50.758;6.106;2024-03-23T09:46:53;0.80;;;0.68;;
73150;SDS011;61354;50.758;6.106;2024-03-23T09:49:38;3.95;;;0.90;;
73150;SDS011;61354;50.758;6.106;2024-03-23T09:52:24;2.42;;;0.82;;
73150;SDS011;61354;50.758;6.106;2024-03-23T09:55:08;6.88;;;1.48;;
73150;SDS011;61354;50.758;6.106;2024-03-23T09:57:53;2.15;;;0.93;;
73150;SDS011;61354;50.758;6.106;2024-03-23T10:00:37;3.65;;;1.45;;
73150;SDS011;61354;50.758;6.106;2024-03-23T10:03:21;3.38;;;1.25;;
73150;SDS011;61354;50.758;6.106;2024-03-23T10:06:04;4.85;;;1.63;;
73150;SDS011;61354;50.758;6.106;2024-03-23T10:08:48;1.23;;;0.88;;
73150;SDS011;61354;50.758;6.106;2024-03-23T10:11:33;4.45;;;1.73;;
73150;SDS011;61354;50.758;6.106;2024-03-23T10:14:28;5.70;;;2.00;;
73150;SDS011;61354;50.758;6.106;2024-03-23T10:20:04;9.15;;;2.55;;
73150;SDS011;61354;50.758;6.106;2024-03-23T10:22:54;7.32;;;2.50;;
73150;SDS011;61354;50.758;6.106;2024-03-23T10:25:39;5.50;;;2.50;;
73150;SDS011;61354;50.758;6.106;2024-03-23T10:28:23;5.00;;;2.20;;
73150;SDS011;61354;50.758;6.106;2024-03-23T10:31:10;4.68;;;2.20;;
73150;SDS011;61354;50.758;6.106;2024-03-23T10:33:56;8.07;;;2.90;;
73150;SDS011;61354;50.758;6.106;2024-03-23T10:36:40;10.50;;;3.28;;
73150;SDS011;61354;50.758;6.106;2024-03-23T10:39:25;6.93;;;2.97;;
73150;SDS011;61354;50.758;6.106;2024-03-23T10:42:10;6.00;;;2.72;;
73150;SDS011;61354;50.758;6.106;2024-03-23T10:44:54;6.13;;;2.55;;
73150;SDS011;61354;50.758;6.106;2024-03-23T10:47:39;4.63;;;2.22;;
73150;SDS011;61354;50.758;6.106;2024-03-23T10:50:23;5.57;;;1.52;;
73150;SDS011;61354;50.758;6.106;2024-03-23T10:53:11;4.45;;;1.88;;
73150;SDS011;61354;50.758;6.106;2024-03-23T10:55:55;8.10;;;2.55;;
73150;SDS011;61354;50.758;6.106;2024-03-23T10:58:44;5.50;;;2.42;;
73150;SDS011;61354;50.758;6.106;2024-03-23T11:01:31;3.80;;;2.00;;
73150;SDS011;61354;50.758;6.106;2024-03-23T11:04:28;3.90;;;1.77;;
73150;SDS011;61354;50.758;6.106;2024-03-23T11:07:32;7.30;;;2.55;;
73150;SDS011;61354;50.758;6.106;2024-03-23T11:13:24;4.75;;;1.75;;
73150;SDS011;61354;50.758;6.106;2024-03-23T11:25:25;4.88;;;2.55;;
73150;SDS011;61354;50.758;6.106;2024-03-23T11:28:10;5.82;;;2.10;;
73150;SDS011;61354;50.758;6.106;2024-03-23T11:30:55;2.22;;;1.27;;
73150;SDS011;61354;50.758;6.106;2024-03-23T11:33:39;5.15;;;1.50;;
73150;SDS011;61354;50.758;6.106;2024-03-23T11:36:23;4.90;;;2.03;;
73150;SDS011;61354;50.758;6.106;2024-03-23T11:39:19;3.13;;;1.90;;
73150;SDS011;61354;50.758;6.106;2024-03-23T11:42:04;5.82;;;2.00;;
73150;SDS011;61354;50.758;6.106;2024-03-23T11:44:49;3.58;;;1.88;;
73150;SDS011;61354;50.758;6.106;2024-03-23T11:47:33;5.05;;;1.92;;
73150;SDS011;61354;50.758;6.106;2024-03-23T11:50:20;4.47;;;1.85;;
73150;SDS011;61354;50.758;6.106;2024-03-23T11:55:55;6.55;;;1.80;;
73150;SDS011;61354;50.758;6.106;2024-03-23T11:58:43;4.95;;;1.85;;
73150;SDS011;61354;50.758;6.106;2024-03-23T12:01:27;3.95;;;1.60;;
73150;SDS011;61354;50.758;6.106;2024-03-23T12:04:11;5.88;;;1.83;;
73150;SDS011;61354;50.758;6.106;2024-03-23T12:10:06;5.18;;;1.92;;
73150;SDS011;61354;50.758;6.106;2024-03-23T12:13:02;4.45;;;1.80;;
73150;SDS011;61354;50.758;6.106;2024-03-23T12:15:47;4.70;;;1.60;;
73150;SDS011;61354;50.758;6.106;2024-03-23T12:18:32;3.63;;;1.58;;
73150;SDS011;61354;50.758;6.106;2024-03-23T12:21:17;4.80;;;1.60;;
73150;SDS011;61354;50.758;6.106;2024-03-23T12:24:01;2.55;;;0.80;;
73150;SDS011;61354;50.758;6.106;2024-03-23T12:26:48;4.93;;;1.42;;
73150;SDS011;61354;50.758;6.106;2024-03-23T12:29:34;1.75;;;0.95;;
73150;SDS011;61354;50.758;6.106;2024-03-23T12:32:18;4.97;;;1.40;;
73150;SDS011;61354;50.758;6.106;2024-03-23T12:35:03;2.85;;;1.20;;
73150;SDS011;61354;50.758;6.106;2024-03-23T12:37:47;3.97;;;1.30;;
73150;SDS011;61354;50.758;6.106;2024-03-23T12:40:31;4.57;;;1.48;;
73150;SDS011;61354;50.758;6.106;2024-03-23T12:43:18;2.90;;;1.00;;
73150;SDS011;61354;50.758;6.106;2024-03-23T12:46:02;1.95;;;1.17;;
73150;SDS011;61354;50.758;6.106;2024-03-23T12:48:47;2.33;;;1.23;;
73150;SDS011;61354;50.758;6.106;2024-03-23T12:51:31;3.25;;;0.80;;
73150;SDS011;61354;50.758;6.106;2024-03-23T12:54:15;3.83;;;0.90;;
73150;SDS011;61354;50.758;6.106;2024-03-23T12:56:59;2.75;;;0.90;;
73150;SDS011;61354;50.758;6.106;2024-03-23T12:59:43;6.07;;;1.48;;
73150;SDS011;61354;50.758;6.106;2024-03-23T13:02:27;1.40;;;0.90;;
73150;SDS011;61354;50.758;6.106;2024-03-23T13:05:11;2.13;;;0.90;;
73150;SDS011;61354;50.758;6.106;2024-03-23T13:07:58;2.95;;;1.13;;
73150;SDS011;61354;50.758;6.106;2024-03-23T13:10:43;1.15;;;0.80;;
73150;SDS011;61354;50.758;6.106;2024-03-23T13:13:28;1.48;;;0.68;;
73150;SDS011;61354;50.758;6.106;2024-03-23T13:16:13;3.10;;;0.82;;
73150;SDS011;61354;50.758;6.106;2024-03-23T13:18:59;1.45;;;0.57;;
73150;SDS011;61354;50.758;6.106;2024-03-23T13:21:44;2.97;;;1.30;;
73150;SDS011;61354;50.758;6.106;2024-03-23T13:24:29;2.10;;;0.98;;
73150;SDS011;61354;50.758;6.106;2024-03-23T13:27:16;3.65;;;1.50;;
73150;SDS011;61354;50.758;6.106;2024-03-23T13:30:01;3.83;;;1.50;;
73150;SDS011;61354;50.758;6.106;2024-03-23T13:32:47;4.50;;;1.30;;
73150;SDS011;61354;50.758;6.106;2024-03-23T13:35:31;3.50;;;1.08;;
73150;SDS011;61354;50.758;6.106;2024-03-23T13:38:18;3.25;;;1.10;;
73150;SDS011;61354;50.758;6.106;2024-03-23T13:41:05;3.42;;;1.02;;
73150;SDS011;61354;50.758;6.106;2024-03-23T13:43:51;2.63;;;0.82;;
73150;SDS011;61354;50.758;6.106;2024-03-23T13:46:35;2.90;;;0.88;;
73150;SDS011;61354;50.758;6.106;2024-03-23T13:49:27;0.57;;;0.57;;
73150;SDS011;61354;50.758;6.106;2024-03-23T13:52:12;2.10;;;0.90;;
73150;SDS011;61354;50.758;6.106;2024-03-23T13:54:56;1.80;;;0.93;;
73150;SDS011;61354;50.758;6.106;2024-03-23T13:57:40;2.63;;;0.70;;
73150;SDS011;61354;50.758;6.106;2024-03-23T14:00:24;1.73;;;0.50;;
73150;SDS011;61354;50.758;6.106;2024-03-23T14:03:08;2.70;;;0.93;;
73150;SDS011;61354;50.758;6.106;2024-03-23T14:05:53;0.82;;;0.60;;
73150;SDS011;61354;50.758;6.106;2024-03-23T14:08:37;2.30;;;0.80;;
73150;SDS011;61354;50.758;6.106;2024-03-23T14:11:25;6.40;;;1.02;;
73150;SDS011;61354;50.758;6.106;2024-03-23T14:14:10;2.30;;;0.93;;
73150;SDS011;61354;50.758;6.106;2024-03-23T14:16:54;1.67;;;0.90;;
73150;SDS011;61354;50.758;6.106;2024-03-23T14:19:41;2.10;;;0.75;;
73150;SDS011;61354;50.758;6.106;2024-03-23T14:22:25;3.38;;;0.90;;
73150;SDS011;61354;50.758;6.106;2024-03-23T14:25:11;3.00;;;0.73;;
73150;SDS011;61354;50.758;6.106;2024-03-23T14:27:55;1.17;;;0.80;;
73150;SDS011;61354;50.758;6.106;2024-03-23T14:30:42;1.08;;;0.65;;
73150;SDS011;61354;50.758;6.106;2024-03-23T14:33:27;0.80;;;0.77;;
73150;SDS011;61354;50.758;6.106;2024-03-23T14:39:02;2.50;;;0.60;;
73150;SDS011;61354;50.758;6.106;2024-03-23T14:41:52;1.65;;;0.60;;
73150;SDS011;61354;50.758;6.106;2024-03-23T14:44:36;1.77;;;0.57;;
73150;SDS011;61354;50.758;6.106;2024-03-23T14:47:20;0.60;;;0.60;;
73150;SDS011;61354;50.758;6.106;2024-03-23T14:50:05;1.67;;;0.77;;
73150;SDS011;61354;50.758;6.106;2024-03-23T14:52:51;1.65;;;0.80;;
73150;SDS011;61354;50.758;6.106;2024-03-23T14:55:36;1.20;;;0.55;;
73150;SDS011;61354;50.758;6.106;2024-03-23T14:58:20;2.60;;;1.10;;
73150;SDS011;61354;50.758;6.106;2024-03-23T15:01:05;3.13;;;1.10;;
73150;SDS011;61354;50.758;6.106;2024-03-23T15:03:53;2.28;;;0.90;;
73150;SDS011;61354;50.758;6.106;2024-03-23T15:06:37;0.50;;;0.50;;
73150;SDS011;61354;50.758;6.106;2024-03-23T15:09:21;1.25;;;0.57;;
73150;SDS011;61354;50.758;6.106;2024-03-23T15:12:05;3.50;;;1.25;;
73150;SDS011;61354;50.758;6.106;2024-03-23T15:14:51;1.65;;;0.82;;
73150;SDS011;61354;50.758;6.106;2024-03-23T15:17:35;3.47;;;0.93;;
73150;SDS011;61354;50.758;6.106;2024-03-23T15:23:04;1.83;;;1.08;;
73150;SDS011;61354;50.758;6.106;2024-03-23T15:25:55;3.35;;;1.10;;
73150;SDS011;61354;50.758;6.106;2024-03-23T15:28:39;3.17;;;0.90;;
73150;SDS011;61354;50.758;6.106;2024-03-23T15:31:46;2.10;;;1.20;;
73150;SDS011;61354;50.758;6.106;2024-03-23T15:34:30;2.30;;;1.02;;
73150;SDS011;61354;50.758;6.106;2024-03-23T15:37:15;1.20;;;0.90;;
73150;SDS011;61354;50.758;6.106;2024-03-23T15:39:59;0.60;;;0.52;;
73150;SDS011;61354;50.758;6.106;2024-03-23T15:42:43;2.22;;;1.13;;
73150;SDS011;61354;50.758;6.106;2024-03-23T15:45:27;1.67;;;0.73;;
73150;SDS011;61354;50.758;6.106;2024-03-23T15:48:11;2.42;;;0.80;;
73150;SDS011;61354;50.758;6.106;2024-03-23T15:53:40;2.50;;;0.90;;
73150;SDS011;61354;50.758;6.106;2024-03-23T15:56:24;1.58;;;0.80;;
73150;SDS011;61354;50.758;6.106;2024-03-23T15:59:09;2.90;;;0.95;;
73150;SDS011;61354;50.758;6.106;2024-03-23T16:01:53;2.78;;;1.20;;
73150;SDS011;61354;50.758;6.106;2024-03-23T16:04:37;2.90;;;0.90;;
73150;SDS011;61354;50.758;6.106;2024-03-23T16:07:21;3.58;;;1.02;;
73150;SDS011;61354;50.758;6.106;2024-03-23T16:10:05;2.65;;;1.05;;
73150;SDS011;61354;50.758;6.106;2024-03-23T16:12:53;4.10;;;1.20;;
73150;SDS011;61354;50.758;6.106;2024-03-23T16:15:37;5.93;;;1.15;;
73150;SDS011;61354;50.758;6.106;2024-03-23T16:18:21;3.85;;;1.13;;
73150;SDS011;61354;50.758;6.106;2024-03-23T16:21:06;2.10;;;0.93;;
73150;SDS011;61354;50.758;6.106;2024-03-23T16:23:50;3.30;;;1.17;;
73150;SDS011;61354;50.758;6.106;2024-03-23T16:26:35;2.47;;;1.15;;
73150;SDS011;61354;50.758;6.106;2024-03-23T16:29:20;3.03;;;1.17;;
73150;SDS011;61354;50.758;6.106;2024-03-23T16:32:04;3.50;;;1.08;;
73150;SDS011;61354;50.758;6.106;2024-03-23T16:34:48;3.10;;;0.98;;
73150;SDS011;61354;50.758;6.106;2024-03-23T16:37:32;1.75;;;1.08;;
73150;SDS011;61354;50.758;6.106;2024-03-23T16:40:16;3.63;;;1.00;;
73150;SDS011;61354;50.758;6.106;2024-03-23T16:43:00;3.80;;;1.50;;
73150;SDS011;61354;50.758;6.106;2024-03-23T16:45:50;2.65;;;0.93;;
73150;SDS011;61354;50.758;6.106;2024-03-23T16:48:39;3.03;;;0.80;;
73150;SDS011;61354;50.758;6.106;2024-03-23T16:51:23;2.20;;;1.00;;
73150;SDS011;61354;50.758;6.106;2024-03-23T16:54:07;2.90;;;0.98;;
73150;SDS011;61354;50.758;6.106;2024-03-23T16:56:52;2.22;;;1.13;;
73150;SDS011;61354;50.758;6.106;2024-03-23T16:59:36;2.78;;;1.13;;
73150;SDS011;61354;50.758;6.106;2024-03-23T17:02:22;2.13;;;1.02;;
73150;SDS011;61354;50.758;6.106;2024-03-23T17:05:06;2.30;;;1.02;;
73150;SDS011;61354;50.758;6.106;2024-03-23T17:07:51;5.80;;;1.35;;
73150;SDS011;61354;50.758;6.106;2024-03-23T17:10:36;1.67;;;1.00;;
73150;SDS011;61354;50.758;6.106;2024-03-23T17:13:20;2.10;;;1.20;;
73150;SDS011;61354;50.758;6.106;2024-03-23T17:16:04;2.95;;;1.30;;
73150;SDS011;61354;50.758;6.106;2024-03-23T17:18:49;3.42;;;1.20;;
73150;SDS011;61354;50.758;6.106;2024-03-23T17:21:35;2.30;;;1.20;;
73150;SDS011;61354;50.758;6.106;2024-03-23T17:24:23;4.68;;;1.30;;
73150;SDS011;61354;50.758;6.106;2024-03-23T17:27:10;6.00;;;0.90;;
73150;SDS011;61354;50.758;6.106;2024-03-23T17:29:55;1.23;;;0.90;;
73150;SDS011;61354;50.758;6.106;2024-03-23T17:32:39;2.47;;;1.20;;
73150;SDS011;61354;50.758;6.106;2024-03-23T17:35:24;4.40;;;1.20;;
73150;SDS011;61354;50.758;6.106;2024-03-23T17:38:08;3.97;;;1.10;;
73150;SDS011;61354;50.758;6.106;2024-03-23T17:40:55;1.40;;;0.90;;
73150;SDS011;61354;50.758;6.106;2024-03-23T17:43:39;2.17;;;0.90;;
73150;SDS011;61354;50.758;6.106;2024-03-23T17:46:24;2.53;;;1.20;;
73150;SDS011;61354;50.758;6.106;2024-03-23T17:49:08;7.75;;;1.35;;
73150;SDS011;61354;50.758;6.106;2024-03-23T17:51:52;3.42;;;1.40;;
73150;SDS011;61354;50.758;6.106;2024-03-23T17:54:36;3.80;;;1.20;;
73150;SDS011;61354;50.758;6.106;2024-03-23T17:57:21;2.45;;;1.02;;
73150;SDS011;61354;50.758;6.106;2024-03-23T18:00:06;2.42;;;0.88;;